createdAt,value
2019-03-10T00:00:37.459Z,8.60
2019-03-10T00:03:06.299Z,11.17
2019-03-10T00:05:36.467Z,8.93
2019-03-10T00:08:07.822Z,9.20
2019-03-10T00:10:35.966Z,9.87
2019-03-10T00:13:04.730Z,7.67
2019-03-10T00:15:33.750Z,9.38
2019-03-10T00:18:02.484Z,9.77
2019-03-10T00:20:31.278Z,8.23
2019-03-10T00:23:00.174Z,9.40
2019-03-10T00:25:29.731Z,11.77
2019-03-10T00:27:58.520Z,15.30
2019-03-10T00:30:27.312Z,15.90
2019-03-10T00:32:56.086Z,12.20
2019-03-10T00:35:25.065Z,8.03
2019-03-10T00:37:53.832Z,16.30
2019-03-10T00:40:40.503Z,9.03
2019-03-10T00:43:19.899Z,11.80
2019-03-10T00:46:06.812Z,9.43
2019-03-10T00:48:49.924Z,12.50
2019-03-10T00:51:41.066Z,11.13
2019-03-10T00:54:09.816Z,7.50
2019-03-10T00:56:38.801Z,7.70
2019-03-10T00:59:07.548Z,8.70
2019-03-10T01:01:36.310Z,8.03
2019-03-10T01:04:05.098Z,8.20
2019-03-10T01:06:33.857Z,6.73
2019-03-10T01:09:04.010Z,13.87
2019-03-10T01:11:32.796Z,9.27
2019-03-10T01:14:01.591Z,9.33
2019-03-10T01:16:30.979Z,10.03
2019-03-10T01:18:59.966Z,17.07
2019-03-10T01:21:30.173Z,11.70
2019-03-10T01:23:58.962Z,9.53
2019-03-10T01:26:28.762Z,15.57
2019-03-10T01:28:57.594Z,9.47
2019-03-10T01:31:31.115Z,11.10
2019-03-10T01:34:22.128Z,14.00
2019-03-10T01:36:51.000Z,12.73
2019-03-10T01:39:19.797Z,13.00
2019-03-10T01:41:48.538Z,10.90
2019-03-10T01:44:17.339Z,9.33
2019-03-10T01:46:46.212Z,10.97
2019-03-10T01:49:14.985Z,8.48
2019-03-10T01:51:43.753Z,9.50
2019-03-10T01:54:12.773Z,11.43
2019-03-10T01:56:41.818Z,12.33
2019-03-10T01:59:10.809Z,15.53
2019-03-10T02:01:39.663Z,13.13
2019-03-10T02:04:08.466Z,16.33
2019-03-10T02:06:37.247Z,17.27
2019-03-10T02:09:06.334Z,17.00
2019-03-10T02:11:35.102Z,14.20
2019-03-10T02:14:03.994Z,11.67
2019-03-10T02:16:32.747Z,11.93
2019-03-10T02:19:01.567Z,13.10
2019-03-10T02:21:30.310Z,15.60
2019-03-10T02:23:59.086Z,9.27
2019-03-10T02:26:27.853Z,11.80
2019-03-10T02:28:56.610Z,15.93
2019-03-10T02:31:26.235Z,9.23
2019-03-10T02:33:55.231Z,12.17
2019-03-10T02:36:24.839Z,14.43
2019-03-10T02:38:53.998Z,17.33
2019-03-10T02:41:22.837Z,13.43
2019-03-10T02:43:51.703Z,14.27
2019-03-10T02:46:20.616Z,15.10
2019-03-10T02:48:49.372Z,14.93
2019-03-10T02:51:18.149Z,11.00
2019-03-10T02:53:46.922Z,13.77
2019-03-10T02:56:15.981Z,10.80
2019-03-10T02:58:44.971Z,13.80
2019-03-10T03:01:13.875Z,14.80
2019-03-10T03:03:42.890Z,17.50
2019-03-10T03:06:11.711Z,12.20
2019-03-10T03:08:40.643Z,14.37
2019-03-10T03:11:09.768Z,13.68
2019-03-10T03:13:38.750Z,12.43
2019-03-10T03:16:07.577Z,17.77
2019-03-10T03:18:36.420Z,12.20
2019-03-10T03:21:05.224Z,16.23
2019-03-10T03:23:34.007Z,17.07
2019-03-10T03:26:02.890Z,17.23
2019-03-10T03:28:31.632Z,16.40
2019-03-10T03:31:01.181Z,14.33
2019-03-10T03:33:29.985Z,14.53
2019-03-10T03:36:00.715Z,11.03
2019-03-10T03:38:36.982Z,16.27
2019-03-10T03:41:07.440Z,14.87
2019-03-10T03:43:36.226Z,18.47
2019-03-10T03:46:05.181Z,16.30
2019-03-10T03:48:34.075Z,16.20
2019-03-10T03:51:03.073Z,15.27
2019-03-10T03:53:31.944Z,13.30
2019-03-10T03:56:00.748Z,19.60
2019-03-10T03:58:29.663Z,15.47
2019-03-10T04:01:04.179Z,17.63
2019-03-10T04:03:33.037Z,17.10
2019-03-10T04:06:01.788Z,12.43
2019-03-10T04:08:31.346Z,16.00
2019-03-10T04:11:00.103Z,12.50
2019-03-10T04:13:29.139Z,11.20
2019-03-10T04:15:58.023Z,16.33
2019-03-10T04:18:26.824Z,11.93
2019-03-10T04:20:56.127Z,13.87
2019-03-10T04:23:24.983Z,9.60
2019-03-10T04:25:53.851Z,11.20
2019-03-10T04:28:22.739Z,16.70
2019-03-10T04:30:51.535Z,10.40
2019-03-10T04:33:20.361Z,14.37
2019-03-10T04:35:49.126Z,18.10
2019-03-10T04:38:18.660Z,16.63
2019-03-10T04:40:47.430Z,14.93
2019-03-10T04:43:16.263Z,12.53
2019-03-10T04:45:45.228Z,11.53
2019-03-10T04:48:13.978Z,14.57
2019-03-10T04:50:42.798Z,13.17
2019-03-10T04:53:11.815Z,16.07
2019-03-10T04:55:48.714Z,13.37
2019-03-10T04:58:18.040Z,14.83
2019-03-10T05:00:49.594Z,13.07
2019-03-10T05:03:18.341Z,16.60
2019-03-10T05:05:47.169Z,18.17
2019-03-10T05:08:15.891Z,12.83
2019-03-10T05:10:44.815Z,10.50
2019-03-10T05:13:13.549Z,6.83
2019-03-10T05:15:42.447Z,11.60
2019-03-10T05:18:11.223Z,12.60
2019-03-10T05:20:40.221Z,13.00
2019-03-10T05:23:40.545Z,12.90
2019-03-10T05:26:09.470Z,10.30
2019-03-10T05:28:39.824Z,12.53
2019-03-10T05:31:08.783Z,10.53
2019-03-10T05:33:37.507Z,9.23
2019-03-10T05:36:06.340Z,9.67
2019-03-10T05:38:35.298Z,10.07
2019-03-10T05:41:04.052Z,13.43
2019-03-10T05:43:32.842Z,12.30
2019-03-10T05:46:01.646Z,9.07
2019-03-10T05:48:30.369Z,10.83
2019-03-10T05:50:59.169Z,11.70
2019-03-10T05:53:27.914Z,13.53
2019-03-10T05:55:56.675Z,8.83
2019-03-10T05:58:29.243Z,11.90
2019-03-10T06:00:58.001Z,13.70
2019-03-10T06:03:33.037Z,10.27
2019-03-10T06:06:01.831Z,12.53
2019-03-10T06:08:30.589Z,11.17
2019-03-10T06:10:59.354Z,13.77
2019-03-10T06:13:28.136Z,7.90
2019-03-10T06:15:56.914Z,10.53
2019-03-10T06:18:25.714Z,9.73
2019-03-10T06:20:54.495Z,17.57
2019-03-10T06:23:24.015Z,9.27
2019-03-10T06:25:52.787Z,10.47
2019-03-10T06:28:22.327Z,8.23
2019-03-10T06:30:51.112Z,11.47
2019-03-10T06:33:19.958Z,12.03
2019-03-10T06:35:48.830Z,7.33
2019-03-10T06:38:17.634Z,13.30
2019-03-10T06:40:46.354Z,12.47
2019-03-10T06:43:15.145Z,13.40
2019-03-10T06:45:43.873Z,13.90
2019-03-10T06:48:12.719Z,13.97
2019-03-10T06:50:41.462Z,13.73
2019-03-10T06:53:11.039Z,12.20
2019-03-10T06:55:39.922Z,11.33
2019-03-10T06:58:08.700Z,13.93
2019-03-10T07:00:37.574Z,12.07
2019-03-10T07:03:06.346Z,11.03
2019-03-10T07:05:35.123Z,13.27
2019-03-10T07:08:03.872Z,8.77
2019-03-10T07:10:32.695Z,12.40
2019-03-10T07:13:01.738Z,10.37
2019-03-10T07:15:31.378Z,14.50
2019-03-10T07:18:00.207Z,8.13
2019-03-10T07:20:28.999Z,11.17
2019-03-10T07:22:57.810Z,9.27
2019-03-10T07:25:26.639Z,13.97
2019-03-10T07:28:26.535Z,15.17
2019-03-10T07:30:59.838Z,13.50
2019-03-10T07:33:48.305Z,18.47
2019-03-10T07:36:54.468Z,17.87
2019-03-10T07:39:51.114Z,12.80
2019-03-10T07:42:48.156Z,18.60
2019-03-10T07:45:38.790Z,15.67
2019-03-10T07:48:17.070Z,15.57
2019-03-10T07:51:07.676Z,15.60
2019-03-10T07:53:54.179Z,14.80
2019-03-10T07:56:42.002Z,15.93
2019-03-10T07:59:30.360Z,18.33
2019-03-10T08:02:16.833Z,17.70
2019-03-10T08:05:07.686Z,13.83
2019-03-10T08:07:48.346Z,11.50
2019-03-10T08:10:45.516Z,13.30
2019-03-10T08:13:30.423Z,15.50
2019-03-10T08:16:06.107Z,15.17
2019-03-10T08:18:45.585Z,16.63
2019-03-10T08:21:42.674Z,16.17
2019-03-10T08:24:31.340Z,13.07
2019-03-10T08:27:18.938Z,15.03
2019-03-10T08:30:10.962Z,12.00
2019-03-10T08:32:48.231Z,12.67
2019-03-10T08:35:39.178Z,12.33
2019-03-10T08:38:31.555Z,12.93
2019-03-10T08:41:13.211Z,12.50
2019-03-10T08:44:11.344Z,11.47
2019-03-10T08:46:47.685Z,11.83
2019-03-10T08:49:23.847Z,8.67
2019-03-10T08:52:04.902Z,11.37
2019-03-10T08:54:38.657Z,10.73
2019-03-10T08:57:16.065Z,8.60
2019-03-10T09:00:10.108Z,7.17
2019-03-10T09:03:00.941Z,6.73
2019-03-10T09:05:36.957Z,5.73
2019-03-10T09:08:30.679Z,5.73
2019-03-10T09:11:21.577Z,5.33
2019-03-10T09:14:05.821Z,5.17
2019-03-10T09:16:52.539Z,5.03
2019-03-10T09:19:46.417Z,5.87
2019-03-10T09:22:49.383Z,4.03
2019-03-10T09:25:37.201Z,7.20
2019-03-10T09:28:23.876Z,2.83
2019-03-10T09:31:10.410Z,2.63
2019-03-10T09:34:06.212Z,3.60
2019-03-10T09:37:09.391Z,4.23
2019-03-10T09:39:46.957Z,3.47
2019-03-10T09:42:33.461Z,2.63
2019-03-10T09:45:24.263Z,3.77
2019-03-10T09:48:11.357Z,4.10
2019-03-10T09:51:02.132Z,2.73
2019-03-10T09:53:45.472Z,2.97
2019-03-10T09:56:39.406Z,4.53
2019-03-10T09:59:26.010Z,4.80
2019-03-10T10:02:13.838Z,6.13
2019-03-10T10:05:07.597Z,3.17
2019-03-10T10:07:52.809Z,4.07
2019-03-10T10:10:34.427Z,2.80
2019-03-10T10:13:20.908Z,2.77
2019-03-10T10:16:10.374Z,2.37
2019-03-10T10:19:10.596Z,4.03
2019-03-10T10:21:51.759Z,4.27
2019-03-10T10:24:55.157Z,4.73
2019-03-10T10:27:43.024Z,5.53
2019-03-10T10:30:43.311Z,2.57
2019-03-10T10:33:34.340Z,3.33
2019-03-10T10:36:25.243Z,3.17
2019-03-10T10:39:11.732Z,3.47
2019-03-10T10:41:58.610Z,2.53
2019-03-10T10:44:36.131Z,3.93
2019-03-10T10:47:30.000Z,5.73
2019-03-10T10:50:15.298Z,4.50
2019-03-10T10:53:01.855Z,3.50
2019-03-10T10:55:52.701Z,3.30
2019-03-10T10:58:43.615Z,3.10
2019-03-10T11:01:33.454Z,3.73
2019-03-10T11:04:24.257Z,3.23
2019-03-10T11:07:12.094Z,3.60
2019-03-10T11:10:00.032Z,2.47
2019-03-10T11:12:48.070Z,2.33
2019-03-10T11:15:28.215Z,3.93
2019-03-10T11:18:10.852Z,2.93
2019-03-10T11:20:49.228Z,4.50
2019-03-10T11:23:32.156Z,3.40
2019-03-10T11:26:20.077Z,3.20
2019-03-10T11:29:20.402Z,3.13
2019-03-10T11:32:08.267Z,3.43
2019-03-10T11:34:54.742Z,3.43
2019-03-10T11:37:45.664Z,3.43
2019-03-10T11:40:33.565Z,2.60
2019-03-10T11:43:22.848Z,2.90
2019-03-10T11:46:11.242Z,2.87
2019-03-10T11:48:56.980Z,3.20
2019-03-10T11:51:48.191Z,2.70
2019-03-10T11:54:34.827Z,2.73
2019-03-10T11:57:27.055Z,2.70
2019-03-10T12:00:04.047Z,3.17
2019-03-10T12:03:09.901Z,2.83
2019-03-10T12:05:45.862Z,2.77
2019-03-10T12:08:36.553Z,4.30
2019-03-10T12:11:05.524Z,4.33
2019-03-10T12:13:34.340Z,3.47
2019-03-10T12:16:03.168Z,3.23
2019-03-10T12:18:32.018Z,4.50
2019-03-10T12:21:00.917Z,3.80
2019-03-10T12:23:29.972Z,4.90
2019-03-10T12:25:58.888Z,3.83
2019-03-10T12:28:27.810Z,4.63
2019-03-10T12:30:56.875Z,4.70
2019-03-10T12:33:25.975Z,4.83
2019-03-10T12:35:54.822Z,4.83
2019-03-10T12:38:23.808Z,5.00
2019-03-10T12:40:52.872Z,4.47
2019-03-10T12:43:21.955Z,6.77
2019-03-10T12:45:50.745Z,5.50
2019-03-10T12:48:19.653Z,6.33
2019-03-10T12:50:48.728Z,6.27
2019-03-10T12:53:17.638Z,8.63
2019-03-10T12:55:46.514Z,8.67
2019-03-10T12:58:15.391Z,8.47
2019-03-10T13:00:44.174Z,8.73
2019-03-10T13:03:13.311Z,8.13
2019-03-10T13:05:42.349Z,8.30
2019-03-10T13:08:11.267Z,9.47
2019-03-10T13:10:40.727Z,9.40
2019-03-10T13:13:09.733Z,9.17
2019-03-10T13:15:38.904Z,9.20
2019-03-10T13:18:07.914Z,8.73
2019-03-10T13:20:38.063Z,10.70
2019-03-10T13:23:07.126Z,7.53
2019-03-10T13:25:36.029Z,8.97
2019-03-10T13:28:05.057Z,11.13
2019-03-10T13:30:34.016Z,12.57
2019-03-10T13:33:02.937Z,12.60
2019-03-10T13:35:31.895Z,13.70
2019-03-10T13:38:00.916Z,13.90
2019-03-10T13:40:30.213Z,11.30
2019-03-10T13:42:58.991Z,14.93
2019-03-10T13:45:27.954Z,18.97
2019-03-10T13:47:56.798Z,21.33
2019-03-10T13:50:25.867Z,20.27
2019-03-10T13:52:54.677Z,17.60
2019-03-10T13:55:23.496Z,20.27
2019-03-10T13:57:53.140Z,8.83
2019-03-10T14:00:23.935Z,9.80
2019-03-10T14:02:53.483Z,13.30
2019-03-10T14:05:22.425Z,14.07
2019-03-10T14:07:51.646Z,10.90
2019-03-10T14:10:20.665Z,12.23
2019-03-10T14:12:49.530Z,8.93
2019-03-10T14:15:18.468Z,8.97
2019-03-10T14:17:47.640Z,9.53
2019-03-10T14:20:16.528Z,6.57
2019-03-10T14:22:45.407Z,8.77
2019-03-10T14:25:14.850Z,8.60
2019-03-10T14:27:43.946Z,5.50
2019-03-10T14:30:12.955Z,10.50
2019-03-10T14:32:42.020Z,8.67
2019-03-10T14:35:11.069Z,5.10
2019-03-10T14:37:40.395Z,7.40
2019-03-10T14:40:09.968Z,8.70
2019-03-10T14:42:38.923Z,5.93
2019-03-10T14:45:09.063Z,7.37
2019-03-10T14:47:38.535Z,6.63
2019-03-10T14:50:08.357Z,8.67
2019-03-10T14:52:37.288Z,8.10
2019-03-10T14:55:06.819Z,7.40
2019-03-10T14:57:35.914Z,8.77
2019-03-10T15:00:05.801Z,6.23
2019-03-10T15:02:34.650Z,10.67
2019-03-10T15:05:03.552Z,11.70
2019-03-10T15:07:32.695Z,4.80
2019-03-10T15:10:01.542Z,7.10
2019-03-10T15:12:30.471Z,6.83
2019-03-10T15:14:59.579Z,6.53
2019-03-10T15:17:28.457Z,6.77
2019-03-10T15:19:57.246Z,3.30
2019-03-10T15:22:26.123Z,7.43
2019-03-10T15:24:56.555Z,6.83
2019-03-10T15:27:25.827Z,4.27
2019-03-10T15:29:54.848Z,7.30
2019-03-10T15:32:23.811Z,4.30
2019-03-10T15:34:53.047Z,5.27
2019-03-10T15:37:21.905Z,5.53
2019-03-10T15:39:50.810Z,4.50
2019-03-10T15:42:19.664Z,3.17
2019-03-10T15:44:48.528Z,3.23
2019-03-10T15:47:17.339Z,4.40
2019-03-10T15:49:46.219Z,5.63
2019-03-10T15:52:15.162Z,5.53
2019-03-10T15:54:44.096Z,2.27
2019-03-10T15:57:12.978Z,2.93
2019-03-10T15:59:42.092Z,1.73
2019-03-10T16:02:10.985Z,1.20
2019-03-10T16:04:39.866Z,2.20
2019-03-10T16:07:08.806Z,0.90
2019-03-10T16:09:37.709Z,0.90
2019-03-10T16:12:06.701Z,0.97
2019-03-10T16:14:35.824Z,1.10
2019-03-10T16:17:04.710Z,0.80
2019-03-10T16:19:33.784Z,0.83
2019-03-10T16:22:02.812Z,0.93
2019-03-10T16:24:31.764Z,1.40
2019-03-10T16:27:01.396Z,1.80
2019-03-10T16:29:30.172Z,1.73
2019-03-10T16:31:59.137Z,3.13
2019-03-10T16:34:28.101Z,0.87
2019-03-10T16:36:56.970Z,0.80
2019-03-10T16:39:26.051Z,0.90
2019-03-10T16:41:55.089Z,0.60
2019-03-10T16:44:24.011Z,0.80
2019-03-10T16:46:53.290Z,0.80
2019-03-10T16:49:22.362Z,1.37
2019-03-10T16:51:51.195Z,0.70
2019-03-10T16:54:20.059Z,0.93
2019-03-10T16:56:48.998Z,0.83
2019-03-10T16:59:18.055Z,0.80
2019-03-10T17:01:46.922Z,0.80
2019-03-10T17:04:15.807Z,1.80
2019-03-10T17:06:44.858Z,1.43
2019-03-10T17:09:15.924Z,1.12
2019-03-10T17:11:44.913Z,2.10
2019-03-10T17:14:13.722Z,1.37
2019-03-10T17:16:42.586Z,0.80
2019-03-10T17:19:11.758Z,0.83
2019-03-10T17:21:42.066Z,1.00
2019-03-10T17:24:11.125Z,0.93
2019-03-10T17:26:39.925Z,1.03
2019-03-10T17:29:08.843Z,0.90
2019-03-10T17:31:37.905Z,0.80
2019-03-10T17:34:06.819Z,0.80
2019-03-10T17:36:35.758Z,1.30
2019-03-10T17:39:06.098Z,1.10
2019-03-10T17:41:35.712Z,0.83
2019-03-10T17:44:04.620Z,1.20
2019-03-10T17:46:33.599Z,0.90
2019-03-10T17:49:02.708Z,1.03
2019-03-10T17:51:31.664Z,1.00
2019-03-10T17:54:00.533Z,1.10
2019-03-10T17:56:29.631Z,0.80
2019-03-10T17:58:59.280Z,1.00
2019-03-10T18:01:28.357Z,1.30
2019-03-10T18:03:57.205Z,0.90
2019-03-10T18:06:26.170Z,0.97
2019-03-10T18:08:55.353Z,0.90
2019-03-10T18:11:24.276Z,1.00
2019-03-10T18:13:53.333Z,0.80
2019-03-10T18:16:22.178Z,0.90
2019-03-10T18:18:51.136Z,1.20
2019-03-10T18:21:20.024Z,1.30
2019-03-10T18:23:48.879Z,1.47
2019-03-10T18:26:17.942Z,1.40
2019-03-10T18:28:46.787Z,1.90
2019-03-10T18:31:15.720Z,1.37
2019-03-10T18:33:44.707Z,1.30
2019-03-10T18:36:14.303Z,1.23
2019-03-10T18:38:43.153Z,1.77
2019-03-10T18:41:12.259Z,1.43
2019-03-10T18:43:41.172Z,3.67
2019-03-10T18:46:11.801Z,1.40
2019-03-10T18:48:40.873Z,1.33
2019-03-10T18:51:09.850Z,1.70
2019-03-10T18:53:39.129Z,1.53
2019-03-10T18:56:08.386Z,1.37
2019-03-10T18:58:37.267Z,1.50
2019-03-10T19:01:06.263Z,1.37
2019-03-10T19:03:35.238Z,1.30
2019-03-10T19:06:04.434Z,1.40
2019-03-10T19:08:33.790Z,1.50
2019-03-10T19:11:03.398Z,1.40
2019-03-10T19:13:32.449Z,1.47
2019-03-10T19:16:01.359Z,1.50
2019-03-10T19:18:30.456Z,1.40
2019-03-10T19:20:59.730Z,1.60
2019-03-10T19:23:29.296Z,1.63
2019-03-10T19:25:58.343Z,1.50
2019-03-10T19:28:27.283Z,1.60
2019-03-10T19:30:56.150Z,1.60
2019-03-10T19:33:25.202Z,1.80
2019-03-10T19:35:54.243Z,1.63
2019-03-10T19:38:23.164Z,1.77
2019-03-10T19:40:52.088Z,1.73
2019-03-10T19:43:21.169Z,1.77
2019-03-10T19:45:50.147Z,1.80
2019-03-10T19:48:19.508Z,2.07
2019-03-10T19:50:48.430Z,1.83
2019-03-10T19:53:17.376Z,1.70
2019-03-10T19:55:46.247Z,2.00
2019-03-10T19:58:15.220Z,2.23
2019-03-10T20:00:44.370Z,2.40
2019-03-10T20:03:13.395Z,2.50
2019-03-10T20:05:42.505Z,2.77
2019-03-10T20:08:11.624Z,2.43
2019-03-10T20:10:40.526Z,2.37
2019-03-10T20:13:09.478Z,2.37
2019-03-10T20:15:38.395Z,2.20
2019-03-10T20:18:07.461Z,2.20
2019-03-10T20:20:36.779Z,2.40
2019-03-10T20:23:05.774Z,2.13
2019-03-10T20:25:34.799Z,2.20
2019-03-10T20:28:03.836Z,2.00
2019-03-10T20:30:32.723Z,2.43
2019-03-10T20:33:01.797Z,2.63
2019-03-10T20:35:30.872Z,2.70
2019-03-10T20:37:59.775Z,2.53
2019-03-10T20:40:28.927Z,2.50
2019-03-10T20:42:57.780Z,2.67
2019-03-10T20:45:26.775Z,2.67
2019-03-10T20:47:56.817Z,2.67
2019-03-10T20:50:25.931Z,2.73
2019-03-10T20:52:54.750Z,2.23
2019-03-10T20:55:23.733Z,2.40
2019-03-10T20:57:52.559Z,1.77
2019-03-10T21:00:21.945Z,1.63
2019-03-10T21:02:50.792Z,2.00
2019-03-10T21:05:19.893Z,1.40
2019-03-10T21:07:48.954Z,1.43
2019-03-10T21:10:18.890Z,1.23
2019-03-10T21:12:47.904Z,1.73
2019-03-10T21:15:18.062Z,1.37
2019-03-10T21:17:46.973Z,1.30
2019-03-10T21:20:16.463Z,0.97
2019-03-10T21:22:45.711Z,1.10
2019-03-10T21:25:16.556Z,1.33
2019-03-10T21:27:45.338Z,2.10
2019-03-10T21:30:15.968Z,1.53
2019-03-10T21:32:45.680Z,1.77
2019-03-10T21:35:18.054Z,1.67
2019-03-10T21:37:46.315Z,2.70
2019-03-10T21:40:15.925Z,3.70
2019-03-10T21:42:44.786Z,2.33
2019-03-10T21:45:13.865Z,1.43
2019-03-10T21:47:42.725Z,4.87
2019-03-10T21:50:12.190Z,2.23
2019-03-10T21:52:41.203Z,3.93
2019-03-10T21:55:30.558Z,5.30
2019-03-10T21:57:59.384Z,3.87
2019-03-10T22:00:28.343Z,4.20
2019-03-10T22:02:57.367Z,2.87
2019-03-10T22:05:26.162Z,2.70
2019-03-10T22:07:55.030Z,1.80
2019-03-10T22:10:27.313Z,3.10
2019-03-10T22:12:54.636Z,2.77
2019-03-10T22:15:23.527Z,4.53
2019-03-10T22:17:52.459Z,2.40
2019-03-10T22:20:21.272Z,2.17
2019-03-10T22:22:50.356Z,4.67
2019-03-10T22:25:19.535Z,3.50
2019-03-10T22:27:48.465Z,2.80
2019-03-10T22:30:19.264Z,6.97
2019-03-10T22:32:49.650Z,4.43
2019-03-10T22:35:18.442Z,3.80
2019-03-10T22:37:48.086Z,5.33
2019-03-10T22:40:17.071Z,2.73
2019-03-10T22:42:45.923Z,3.60
2019-03-10T22:45:14.821Z,4.23
2019-03-10T22:47:43.628Z,5.07
2019-03-10T22:50:12.803Z,3.43
2019-03-10T22:52:41.728Z,7.87
2019-03-10T22:55:10.730Z,5.37
2019-03-10T22:57:39.878Z,2.50
2019-03-10T23:00:10.881Z,6.60
2019-03-10T23:02:40.085Z,3.37
2019-03-10T23:05:08.874Z,5.10
2019-03-10T23:07:37.832Z,6.63
2019-03-10T23:10:07.224Z,4.13
2019-03-10T23:12:36.220Z,4.17
2019-03-10T23:15:05.323Z,6.33
2019-03-10T23:17:35.154Z,2.80
2019-03-10T23:20:06.460Z,3.73
2019-03-10T23:22:35.902Z,4.30
2019-03-10T23:25:06.539Z,2.90
2019-03-10T23:27:36.199Z,5.70
2019-03-10T23:30:05.525Z,7.23
2019-03-10T23:32:35.561Z,8.00
2019-03-10T23:35:06.103Z,5.90
2019-03-10T23:37:36.177Z,5.83
2019-03-10T23:40:06.661Z,4.37
2019-03-10T23:42:36.878Z,5.60
2019-03-10T23:45:07.508Z,3.90
2019-03-10T23:47:37.694Z,2.80
2019-03-10T23:50:07.916Z,4.07
2019-03-10T23:52:36.971Z,4.33
2019-03-10T23:55:07.642Z,9.80
2019-03-10T23:57:38.715Z,4.07
